createdAt,value
2019-01-25T00:01:26.653Z,46.30
2019-01-25T00:06:29.978Z,45.60
2019-01-25T00:11:33.709Z,44.57
2019-01-25T00:16:37.439Z,44.57
2019-01-25T00:21:40.861Z,43.20
2019-01-25T00:26:44.296Z,45.23
2019-01-25T00:31:47.717Z,42.30
2019-01-25T00:36:50.811Z,44.53
2019-01-25T00:41:53.906Z,42.60
2019-01-25T00:46:57.125Z,44.70
2019-01-25T00:52:00.802Z,43.57
2019-01-25T00:57:04.051Z,44.47
2019-01-25T01:02:07.772Z,44.17
2019-01-25T01:07:10.849Z,44.53
2019-01-25T01:12:14.268Z,42.17
2019-01-25T01:17:17.700Z,43.90
2019-01-25T01:22:21.212Z,42.47
2019-01-25T01:27:24.636Z,44.63
2019-01-25T01:32:27.727Z,42.13
2019-01-25T01:37:31.451Z,45.57
2019-01-25T01:42:34.895Z,44.70
2019-01-25T01:47:38.582Z,46.83
2019-01-25T01:52:41.693Z,45.53
2019-01-25T01:57:45.133Z,45.60
2019-01-25T02:02:48.629Z,43.90
2019-01-25T02:07:52.454Z,43.17
2019-01-25T02:12:55.946Z,44.10
2019-01-25T02:17:59.041Z,44.53
2019-01-25T02:23:02.127Z,45.43
2019-01-25T02:28:05.463Z,45.30
2019-01-25T02:33:08.581Z,45.03
2019-01-25T02:38:12.346Z,44.53
2019-01-25T02:43:15.782Z,43.40
2019-01-25T02:48:19.468Z,41.97
2019-01-25T02:53:22.893Z,43.00
2019-01-25T02:58:25.973Z,43.90
2019-01-25T03:03:29.077Z,45.30
2019-01-25T03:08:32.435Z,42.90
2019-01-25T03:13:36.140Z,43.53
2019-01-25T03:18:39.590Z,41.37
2019-01-25T03:23:43.009Z,44.13
2019-01-25T03:28:46.439Z,42.17
2019-01-25T03:33:49.542Z,43.98
2019-01-25T03:38:52.671Z,43.27
2019-01-25T03:43:56.090Z,45.20
2019-01-25T03:48:59.825Z,42.67
2019-01-25T03:54:03.290Z,44.43
2019-01-25T03:59:06.780Z,43.00
2019-01-25T04:04:10.209Z,43.67
2019-01-25T04:09:13.632Z,42.57
2019-01-25T04:14:16.711Z,43.87
2019-01-25T04:19:20.135Z,44.03
2019-01-25T04:24:23.538Z,43.60
2019-01-25T04:29:26.967Z,45.33
2019-01-25T04:34:30.384Z,44.80
2019-01-25T04:39:34.108Z,43.17
2019-01-25T04:44:37.522Z,43.43
2019-01-25T04:49:40.956Z,44.97
2019-01-25T04:54:46.974Z,41.73
2019-01-25T04:59:50.400Z,42.23
2019-01-25T05:04:53.496Z,42.57
2019-01-25T05:09:56.827Z,42.97
2019-01-25T05:15:00.253Z,43.73
2019-01-25T05:20:04.852Z,44.33
2019-01-25T05:25:08.031Z,43.73
2019-01-25T05:30:13.336Z,43.33
2019-01-25T05:35:16.489Z,42.80
2019-01-25T05:40:22.458Z,42.10
2019-01-25T05:45:25.894Z,42.50
2019-01-25T05:50:29.322Z,44.13
2019-01-25T05:55:32.419Z,43.20
2019-01-25T06:00:37.480Z,45.00
2019-01-25T06:05:41.047Z,44.20
2019-01-25T06:10:44.153Z,43.47
2019-01-25T06:15:47.569Z,44.37
2019-01-25T06:20:54.625Z,45.33
2019-01-25T06:25:58.341Z,43.00
2019-01-25T06:31:01.662Z,44.20
2019-01-25T06:36:07.076Z,46.20
2019-01-25T06:41:10.503Z,45.00
2019-01-25T06:46:14.198Z,46.63
2019-01-25T06:51:17.630Z,45.40
2019-01-25T06:56:21.316Z,46.47
2019-01-25T07:01:26.047Z,46.00
2019-01-25T07:06:29.134Z,44.00
2019-01-25T07:11:32.232Z,47.33
2019-01-25T07:16:35.631Z,45.60
2019-01-25T07:21:39.343Z,47.40
2019-01-25T07:26:42.439Z,45.33
2019-01-25T07:31:46.395Z,46.73
2019-01-25T07:36:52.017Z,46.60
2019-01-25T07:41:59.609Z,47.23
2019-01-25T07:47:02.351Z,46.17
2019-01-25T07:52:06.162Z,46.77
2019-01-25T07:57:09.313Z,46.10
2019-01-25T08:02:13.047Z,47.67
2019-01-25T08:07:16.159Z,46.83
2019-01-25T08:12:19.292Z,48.60
2019-01-25T08:17:22.660Z,47.50
2019-01-25T08:22:26.142Z,48.07
2019-01-25T08:27:29.561Z,46.47
2019-01-25T08:32:32.633Z,46.23
2019-01-25T08:37:36.436Z,46.27
2019-01-25T08:42:39.909Z,46.90
2019-01-25T08:47:43.262Z,49.73
2019-01-25T08:52:47.022Z,46.90
2019-01-25T08:57:51.081Z,45.60
2019-01-25T09:02:54.486Z,47.10
2019-01-25T09:07:58.152Z,46.27
2019-01-25T09:13:01.233Z,47.10
2019-01-25T09:18:04.589Z,45.50
2019-01-25T09:23:08.009Z,46.10
2019-01-25T09:28:11.122Z,47.47
2019-01-25T09:33:14.468Z,47.80
2019-01-25T09:38:17.552Z,46.20
2019-01-25T09:43:20.642Z,49.03
2019-01-25T09:48:24.302Z,48.20
2019-01-25T09:53:27.394Z,48.23
2019-01-25T09:58:30.818Z,48.17
2019-01-25T10:03:34.232Z,47.13
2019-01-25T10:08:37.319Z,47.37
2019-01-25T10:13:40.409Z,46.90
2019-01-25T10:18:43.759Z,48.93
2019-01-25T10:23:46.863Z,48.13
2019-01-25T10:28:50.271Z,48.00
2019-01-25T10:33:53.598Z,48.80
2019-01-25T10:38:57.016Z,48.27
2019-01-25T10:44:00.097Z,48.93
2019-01-25T10:49:03.185Z,46.83
2019-01-25T10:54:06.350Z,47.50
2019-01-25T10:59:09.774Z,44.93
2019-01-25T11:04:13.202Z,44.70
2019-01-25T11:09:16.292Z,48.70
2019-01-25T11:14:19.699Z,43.97
2019-01-25T11:19:22.797Z,43.53
2019-01-25T11:24:26.233Z,43.80
2019-01-25T11:29:29.313Z,40.47
2019-01-25T11:34:33.170Z,40.07
2019-01-25T11:39:36.414Z,39.83
2019-01-25T11:44:40.157Z,37.40
2019-01-25T11:49:43.590Z,38.73
2019-01-25T11:54:47.005Z,36.67
2019-01-25T11:59:50.423Z,36.67
2019-01-25T12:04:53.841Z,38.43
2019-01-25T12:09:57.255Z,38.40
2019-01-25T12:15:00.674Z,39.23
2019-01-25T12:20:05.618Z,38.47
2019-01-25T12:25:10.126Z,37.07
2019-01-25T12:30:19.638Z,38.77
2019-01-25T12:35:23.336Z,38.30
2019-01-25T12:40:26.434Z,37.30
2019-01-25T12:45:31.089Z,34.37
2019-01-25T12:50:41.649Z,33.57
2019-01-25T12:55:45.078Z,33.33
2019-01-25T13:00:50.055Z,33.07
2019-01-25T13:05:53.471Z,31.53
2019-01-25T13:10:56.602Z,30.43
2019-01-25T13:16:00.009Z,29.40
2019-01-25T13:21:03.586Z,27.13
2019-01-25T13:26:07.002Z,25.97
2019-01-25T13:31:10.475Z,25.00
2019-01-25T13:36:13.836Z,24.67
2019-01-25T13:41:17.549Z,22.63
2019-01-25T13:46:21.266Z,18.30
2019-01-25T13:51:24.710Z,16.97
2019-01-25T13:56:28.194Z,16.10
2019-01-25T14:01:34.650Z,15.73
2019-01-25T14:06:36.727Z,12.20
2019-01-25T14:11:39.851Z,13.80
2019-01-25T14:16:43.341Z,10.73
2019-01-25T14:21:46.821Z,9.90
2019-01-25T14:26:49.958Z,11.47
2019-01-25T14:31:53.431Z,9.00
2019-01-25T14:36:56.579Z,8.63
2019-01-25T14:42:00.063Z,8.67
2019-01-25T14:47:03.239Z,8.30
2019-01-25T14:52:06.362Z,6.37
2019-01-25T14:57:09.489Z,6.47
2019-01-25T15:02:13.001Z,7.13
2019-01-25T15:07:16.470Z,6.73
2019-01-25T15:12:19.938Z,7.50
2019-01-25T15:17:23.397Z,7.77
2019-01-25T15:22:26.868Z,7.60
2019-01-25T15:27:30.000Z,7.37
2019-01-25T15:32:33.479Z,7.20
2019-01-25T15:37:36.971Z,7.73
2019-01-25T15:42:40.145Z,7.73
2019-01-25T15:47:43.636Z,7.17
2019-01-25T15:52:52.005Z,8.27
2019-01-25T15:57:55.647Z,7.70
2019-01-25T16:02:58.812Z,8.47
2019-01-25T16:08:04.052Z,8.47
2019-01-25T16:13:07.217Z,9.20
2019-01-25T16:18:10.680Z,8.73
2019-01-25T16:23:13.845Z,8.57
2019-01-25T16:28:17.255Z,9.20
2019-01-25T16:33:20.433Z,8.93
2019-01-25T16:38:23.934Z,9.27
2019-01-25T16:43:27.439Z,9.90
2019-01-25T16:48:31.258Z,10.50
2019-01-25T16:53:34.767Z,10.30
2019-01-25T16:58:38.199Z,10.23
2019-01-25T17:03:41.418Z,9.93
2019-01-25T17:08:45.185Z,10.73
2019-01-25T17:13:48.693Z,10.10
2019-01-25T17:18:52.126Z,10.70
2019-01-25T17:23:55.291Z,10.83
2019-01-25T17:28:58.799Z,11.80
2019-01-25T17:34:02.322Z,13.17
2019-01-25T17:39:07.034Z,13.37
2019-01-25T17:44:10.476Z,13.47
2019-01-25T17:49:13.663Z,15.00
2019-01-25T17:54:16.849Z,14.20
2019-01-25T17:59:21.253Z,14.30
2019-01-25T18:04:24.461Z,14.80
2019-01-25T18:09:27.988Z,15.23
2019-01-25T18:14:31.501Z,15.33
2019-01-25T18:19:34.699Z,16.50
2019-01-25T18:24:37.901Z,17.60
2019-01-25T18:29:41.550Z,16.67
2019-01-25T18:34:45.034Z,16.90
2019-01-25T18:39:48.219Z,16.87
2019-01-25T18:44:56.699Z,17.07
2019-01-25T18:49:56.714Z,15.90
2019-01-25T18:54:59.906Z,15.03
2019-01-25T19:00:03.604Z,16.10
2019-01-25T19:05:10.006Z,15.43
2019-01-25T19:10:17.776Z,15.70
2019-01-25T19:15:22.734Z,15.43
2019-01-25T19:20:25.910Z,15.20
2019-01-25T19:25:29.118Z,15.80
2019-01-25T19:30:38.165Z,16.23
2019-01-25T19:35:41.458Z,16.20
2019-01-25T19:40:44.886Z,17.27
2019-01-25T19:45:48.762Z,15.63
2019-01-25T19:50:52.234Z,16.27
2019-01-25T19:55:55.807Z,15.97
2019-01-25T20:00:59.262Z,17.07
2019-01-25T20:06:02.561Z,17.20
2019-01-25T20:11:06.082Z,15.60
2019-01-25T20:16:09.928Z,15.53
2019-01-25T20:21:13.167Z,15.47
2019-01-25T20:26:16.643Z,15.90
2019-01-25T20:31:20.173Z,13.93
2019-01-25T20:36:23.366Z,15.87
2019-01-25T20:41:26.553Z,15.03
2019-01-25T20:46:31.711Z,15.70
2019-01-25T20:51:34.882Z,15.00
2019-01-25T20:56:38.665Z,14.43
2019-01-25T21:01:41.845Z,14.80
2019-01-25T21:06:45.031Z,14.13
2019-01-25T21:11:48.516Z,14.50
2019-01-25T21:16:52.977Z,15.17
2019-01-25T21:21:56.181Z,13.60
2019-01-25T21:26:59.354Z,13.80
2019-01-25T21:32:02.878Z,13.93
2019-01-25T21:37:06.121Z,13.53
2019-01-25T21:42:09.640Z,13.23
2019-01-25T21:47:13.521Z,13.62
2019-01-25T21:52:17.004Z,13.30
2019-01-25T21:57:20.173Z,12.40
2019-01-25T22:02:23.655Z,11.93
2019-01-25T22:07:26.781Z,12.43
2019-01-25T22:12:30.268Z,10.63
2019-01-25T22:17:33.742Z,10.93
2019-01-25T22:22:37.205Z,10.33
2019-01-25T22:27:40.297Z,11.47
2019-01-25T22:32:43.484Z,10.77
2019-01-25T22:37:47.445Z,10.23
2019-01-25T22:42:51.185Z,9.20
2019-01-25T22:47:55.626Z,9.23
2019-01-25T22:52:59.045Z,8.30
2019-01-25T22:58:02.483Z,8.90
2019-01-25T23:03:05.574Z,8.73
2019-01-25T23:08:08.660Z,8.53
2019-01-25T23:13:11.740Z,8.30
2019-01-25T23:18:15.509Z,7.73
2019-01-25T23:23:19.238Z,7.00
2019-01-25T23:28:22.662Z,7.30
2019-01-25T23:33:26.100Z,7.20
2019-01-25T23:38:29.869Z,7.27
2019-01-25T23:43:33.300Z,7.30
2019-01-25T23:48:36.624Z,6.80
2019-01-25T23:53:39.701Z,7.60
2019-01-25T23:58:43.051Z,6.90
